»·PEaware :: SWA1536 KSAN-KSFO

SWA1536 :: KSAN-KSFO

FLIGHT INFORMATION

Flight Status: Arrived
Operator:
Southwest Airlines
More flights by this operator :: More flights under this callsign
Pilot: Cody B. (17747)
Aircraft: BOEING 737-800
(B738)
More flights by this aircraft type
Origin: KSAN San Diego Intl-Lindbergh
United States
Destination: KSFO San Francisco Intl
United States
More flights between these airports :: More routes between these airports
Route: PADRZ2 IKAYE RIZIN SPLNT STOKD SERFR SERFR3
File this flight plan on PilotEdge
Remarks:
Altitude:
(Current/Filed)
40,000ft
Speed:
(Current/Filed)
450kts
Departed: 27-Apr-18 03:23 PM
Arrived: 27-Apr-18 04:29 PM
Distance/Time
Traveled:
388nm/1:06
Distance/Time
To Go:
Arrived

Flight Plot

Page will automatically refresh every two minutes.

Flight plan parsing failed; only flown route is shown


Map Options




Map Legend


Flown Route
Filed Route
Departure Airport
Arrival Airport
Navaid (VOR, NDB)
Fix

Horizontal Profiles

Position Reports

Time Latitude Longitude Heading Altitude Ground
Speed
27-Apr-18 14:52 32.733344 -117.196467 176 18ft 0kts
27-Apr-18 14:53 32.733344 -117.196467 176 18ft 0kts
27-Apr-18 14:54 32.733344 -117.196467 176 18ft 0kts
27-Apr-18 14:55 32.733344 -117.196467 176 18ft 0kts
27-Apr-18 14:56 32.733344 -117.196467 176 18ft 0kts
27-Apr-18 14:57 32.733344 -117.196467 176 18ft 0kts
27-Apr-18 14:58 32.733344 -117.196467 176 18ft 0kts
27-Apr-18 14:59 32.733344 -117.196467 176 18ft 0kts
27-Apr-18 15:00 32.733344 -117.196467 176 18ft 0kts
27-Apr-18 15:01 32.733344 -117.196467 176 18ft 0kts
27-Apr-18 15:02 32.733344 -117.196467 176 18ft 0kts
27-Apr-18 15:03 32.733344 -117.196467 176 18ft 0kts
27-Apr-18 15:04 32.733344 -117.196467 176 18ft 0kts
27-Apr-18 15:05 32.733344 -117.196467 176 18ft 0kts
27-Apr-18 15:06 32.733344 -117.196467 176 18ft 0kts
27-Apr-18 15:07 32.733344 -117.196467 176 18ft 0kts
27-Apr-18 15:08 32.733344 -117.196467 176 18ft 0kts
27-Apr-18 15:09 32.733344 -117.196467 176 18ft 0kts
27-Apr-18 15:10 32.733540 -117.196483 176 18ft 2kts
27-Apr-18 15:11 32.734082 -117.196538 157 18ft 2kts
27-Apr-18 15:12 32.734276 -117.196821 107 17ft 0kts
27-Apr-18 15:13 32.734275 -117.196820 107 17ft 0kts
27-Apr-18 15:14 32.734147 -117.196331 106 18ft 4kts
27-Apr-18 15:15 32.733663 -117.194320 106 21ft 10kts
27-Apr-18 15:16 32.732522 -117.189616 105 19ft 15kts
27-Apr-18 15:17 32.731214 -117.184225 106 17ft 18kts
27-Apr-18 15:18 32.729940 -117.178970 106 19ft 15kts
27-Apr-18 15:19 32.729548 -117.176624 71 23ft 0kts
27-Apr-18 15:20 32.729548 -117.176624 71 23ft 0kts
27-Apr-18 15:21 32.730182 -117.176040 304 24ft 7kts
27-Apr-18 15:22 32.735718 -117.198127 287 217ft 179kts
27-Apr-18 15:23 32.755911 -117.255549 303 3270ft 232kts
27-Apr-18 15:24 32.801192 -117.320482 306 6846ft 268kts
27-Apr-18 15:25 32.848054 -117.392690 304 10459ft 289kts
27-Apr-18 15:26 32.900687 -117.474810 305 13354ft 327kts
27-Apr-18 15:27 32.956895 -117.562354 305 16630ft 341kts
27-Apr-18 15:28 33.014871 -117.652782 305 19489ft 353kts
27-Apr-18 15:29 33.077754 -117.744883 317 22011ft 368kts
27-Apr-18 15:30 33.153164 -117.821539 317 24107ft 381kts
27-Apr-18 15:31 33.232032 -117.907281 312 26143ft 390kts
27-Apr-18 15:32 33.309576 -117.999798 312 27997ft 399kts
27-Apr-18 15:33 33.388741 -118.094481 311 29745ft 406kts
27-Apr-18 15:34 33.467753 -118.189229 311 31653ft 402kts
27-Apr-18 15:35 33.546094 -118.283403 311 33342ft 398kts
27-Apr-18 15:36 33.623678 -118.376931 311 34697ft 395kts
27-Apr-18 15:37 33.700712 -118.470042 310 35880ft 393kts
27-Apr-18 15:38 33.777138 -118.562649 310 36855ft 392kts
27-Apr-18 15:39 33.851699 -118.653133 310 37667ft 391kts
27-Apr-18 15:40 33.927700 -118.745945 309 38436ft 391kts
27-Apr-18 15:41 34.003876 -118.839212 309 39128ft 390kts
27-Apr-18 15:42 34.079493 -118.931898 309 39690ft 389kts
27-Apr-18 15:43 34.152077 -119.024460 299 39993ft 388kts
27-Apr-18 15:44 34.209969 -119.136906 297 40004ft 404kts
27-Apr-18 15:45 34.270114 -119.255088 297 40007ft 422kts
27-Apr-18 15:46 34.331805 -119.375690 297 39999ft 423kts
27-Apr-18 15:47 34.393917 -119.496854 297 39988ft 423kts
27-Apr-18 15:48 34.470623 -119.605935 310 39991ft 431kts
27-Apr-18 15:49 34.553426 -119.707903 309 39996ft 430kts
27-Apr-18 15:50 34.637043 -119.811427 309 39996ft 430kts
27-Apr-18 15:51 34.720574 -119.915212 309 40014ft 430kts
27-Apr-18 15:52 34.804014 -120.018950 309 40013ft 431kts
27-Apr-18 15:53 34.887774 -120.123083 309 40054ft 432kts
27-Apr-18 15:54 34.971816 -120.227486 309 40049ft 431kts
27-Apr-18 15:55 35.055730 -120.331638 309 40049ft 432kts
27-Apr-18 15:56 35.139892 -120.430668 312 40044ft 434kts
27-Apr-18 15:57 35.228722 -120.530284 312 40061ft 434kts
27-Apr-18 15:58 35.317514 -120.630081 312 40060ft 435kts
27-Apr-18 15:59 35.405391 -120.728966 311 40069ft 435kts
27-Apr-18 16:00 35.494634 -120.828198 315 40006ft 437kts
27-Apr-18 16:01 35.591624 -120.918631 317 40013ft 439kts
27-Apr-18 16:02 35.688704 -121.008870 316 40013ft 439kts
27-Apr-18 16:03 35.785516 -121.099099 316 40012ft 439kts
27-Apr-18 16:04 35.881365 -121.188510 316 38668ft 428kts
27-Apr-18 16:05 35.976996 -121.278047 316 35825ft 437kts
27-Apr-18 16:06 36.072880 -121.367320 318 32963ft 434kts
27-Apr-18 16:07 36.172210 -121.445334 321 30322ft 435kts
27-Apr-18 16:08 36.271281 -121.522676 320 28062ft 413kts
27-Apr-18 16:09 36.367652 -121.597992 320 25736ft 405kts
27-Apr-18 16:10 36.459755 -121.670471 319 23523ft 389kts
27-Apr-18 16:11 36.549079 -121.740885 320 21384ft 375kts
27-Apr-18 16:12 36.635623 -121.809352 319 19245ft 364kts
27-Apr-18 16:13 36.719974 -121.876340 320 17017ft 358kts
27-Apr-18 16:14 36.814428 -121.916284 341 14952ft 364kts
27-Apr-18 16:15 36.909219 -121.942125 341 13177ft 317kts
27-Apr-18 16:16 36.992430 -121.968922 337 11633ft 311kts
27-Apr-18 16:17 37.073594 -122.000602 337 10604ft 294kts
27-Apr-18 16:18 37.149949 -122.030420 338 9984ft 292kts
27-Apr-18 16:19 37.226524 -122.060360 338 8731ft 283kts
27-Apr-18 16:20 37.300135 -122.089191 337 7488ft 276kts
27-Apr-18 16:21 37.373275 -122.117992 338 5994ft 264kts
27-Apr-18 16:22 37.442940 -122.142459 340 4712ft 263kts
27-Apr-18 16:23 37.513151 -122.166521 340 3392ft 251kts
27-Apr-18 16:24 37.552737 -122.217557 293 2576ft 184kts
27-Apr-18 16:25 37.575241 -122.271607 294 1581ft 150kts
27-Apr-18 16:26 37.592245 -122.312028 294 838ft 125kts
27-Apr-18 16:27 37.608441 -122.350590 295 187ft 124kts
27-Apr-18 16:28 37.618837 -122.375650 284 22ft 36kts
27-Apr-18 16:29 37.618942 -122.378013 266 27ft 0kts
27-Apr-18 16:30 37.618706 -122.379171 235 29ft 9kts
27-Apr-18 16:31 37.615865 -122.380126 208 31ft 13kts
27-Apr-18 16:32 37.613268 -122.381848 208 31ft 6kts
27-Apr-18 16:33 37.612325 -122.383122 307 31ft 1kts
27-Apr-18 16:34 37.612525 -122.383302 329 31ft 0kts
27-Apr-18 16:35 37.612525 -122.383302 329 31ft 0kts
27-Apr-18 16:36 37.612525 -122.383302 329 31ft 0kts
27-Apr-18 16:37 37.612525 -122.383302 329 31ft 0kts
27-Apr-18 16:38 37.612525 -122.383302 329 31ft 0kts
27-Apr-18 16:39 37.612525 -122.383302 329 31ft 0kts
27-Apr-18 16:40 37.612525 -122.383302 329 31ft 0kts
27-Apr-18 16:41 37.612525 -122.383302 329 31ft 0kts
27-Apr-18 16:42 37.612525 -122.383302 329 31ft 0kts

Navigation Log

Ident Type
Flight plan parsing failed, navigation log unavailable